Aeroporto :
LOGIN :

Iscrizione | Disclaimer

   EN    FR    IT 

 










Sommario :    VFR   VFR Marginale   IFR   IFR Intensivo   IFR Molto Intensivo
Visibilità : 
Base nubi : 
>= 8 km
>= 3000ft
5 / 8 km
1000 / 3000 ft
1500m / 5 km
500 / 1000 ft
800 / 1500m
200 / 500 ft
< 800m
< 200 ft
Simboli :   Temporali  Nebbia  Neve Forte  Precipitazioni Forti  Vento > 20 kt
SIGMETs :   Varie  Temporali  Ghiacco  Turbolenza  Onda orograficha  Ceneri Vulcaniche






- Altitudine del aeroporto : 348 ft
- Codice IATA : STN


EGSS - London Stansted

ULTIMO METAR :
  • 060120Z AUTO 17007KT 9999 NCD 11/03 Q1010

METARs OBSOLETI :
  • 060050Z AUTO 16009KT 9999 NCD 12/03 Q1010
  • 060020Z AUTO 16008KT 9999 NCD 12/03 Q1010
  • 052350Z AUTO 16009KT 9999 NCD 12/04 Q1010
  • 052320Z AUTO 15010KT 9999 NCD 12/04 Q1010
  • 052250Z AUTO 15010KT 9999 NCD 12/04 Q1010

TAF TAF EGSS
Valido dal 06 a 00 ore il 07 a 06 ore UTC


052257Z 0600/0706 15013KT CAVOK
TEMPO 0600/0603 16017G27KT
BECMG 0602/0605 BKN025
BECMG 0603/0606 21012KT
TEMPO 0605/0609 7000 -RADZ BKN010
PROB30
TEMPO 0605/0608 3000 RADZ BKN005
BECMG 0608/0611 27010KT
PROB30
TEMPO 0610/0618 8000 -SHRA
BECMG 0621/0624 VRB04KT
ATIS : +44 1279 669 325



MetMap, La meteo Aeronautica in un colpo d'occhio ! - Copyright ORBIFLY Dicembre 2007 - Disclaimer

ORBIFLY MET'MAP TEAM :

Programmazione e sviluppo : Alexandra Zaïnal
Concezione : Baudouin d'Aumeries
Aiuto per la programmazione : Marc-Olivier Méhu
Supporto tecnico e logistico : Manuel Goepfert
Aiuto per la traduzione : Arnaldo La Scala

Contatto : metmap@orbifly.com




FONTI E CREDITI :

   NOAA